sensor_id;sensor_type;location;lat;lon;timestamp;temperature;humidity
75368;DHT22;63954;51.948;5.888;2022-12-16T00:01:40;-0.22;71.84
75368;DHT22;63954;51.948;5.888;2022-12-16T00:04:07;-0.16;71.77
75368;DHT22;63954;51.948;5.888;2022-12-16T00:06:35;-0.11;71.85
75368;DHT22;63954;51.948;5.888;2022-12-16T00:09:02;-0.06;71.80
75368;DHT22;63954;51.948;5.888;2022-12-16T00:11:29;-0.02;71.80
75368;DHT22;63954;51.948;5.888;2022-12-16T00:13:57;0.02;71.77
75368;DHT22;63954;51.948;5.888;2022-12-16T00:16:24;0.06;71.81
75368;DHT22;63954;51.948;5.888;2022-12-16T00:18:53;0.12;71.76
75368;DHT22;63954;51.948;5.888;2022-12-16T00:21:21;0.14;71.90
75368;DHT22;63954;51.948;5.888;2022-12-16T00:23:53;0.19;71.75
75368;DHT22;63954;51.948;5.888;2022-12-16T00:26:20;0.23;71.73
75368;DHT22;63954;51.948;5.888;2022-12-16T00:28:48;0.28;71.64
75368;DHT22;63954;51.948;5.888;2022-12-16T00:31:17;0.30;71.66
75368;DHT22;63954;51.948;5.888;2022-12-16T00:33:45;0.35;71.60
75368;DHT22;63954;51.948;5.888;2022-12-16T00:36:13;0.33;71.51
75368;DHT22;63954;51.948;5.888;2022-12-16T00:38:40;0.33;71.52
75368;DHT22;63954;51.948;5.888;2022-12-16T00:41:11;0.33;71.51
75368;DHT22;63954;51.948;5.888;2022-12-16T00:43:39;0.34;71.51
75368;DHT22;63954;51.948;5.888;2022-12-16T00:46:06;0.37;71.64
75368;DHT22;63954;51.948;5.888;2022-12-16T00:48:33;0.39;71.71
75368;DHT22;63954;51.948;5.888;2022-12-16T00:51:00;0.42;71.67
75368;DHT22;63954;51.948;5.888;2022-12-16T00:53:29;0.39;71.57
75368;DHT22;63954;51.948;5.888;2022-12-16T00:56:03;0.39;71.61
75368;DHT22;63954;51.948;5.888;2022-12-16T00:58:31;0.40;71.68
75368;DHT22;63954;51.948;5.888;2022-12-16T01:00:58;0.44;71.74
75368;DHT22;63954;51.948;5.888;2022-12-16T01:03:25;0.46;71.70
75368;DHT22;63954;51.948;5.888;2022-12-16T01:05:53;0.47;71.68
75368;DHT22;63954;51.948;5.888;2022-12-16T01:08:20;0.47;71.51
75368;DHT22;63954;51.948;5.888;2022-12-16T01:10:53;0.46;71.48
75368;DHT22;63954;51.948;5.888;2022-12-16T01:13:22;0.48;71.46
75368;DHT22;63954;51.948;5.888;2022-12-16T01:15:50;0.51;71.48
75368;DHT22;63954;51.948;5.888;2022-12-16T01:18:17;0.53;71.35
75368;DHT22;63954;51.948;5.888;2022-12-16T01:20:45;0.57;71.31
75368;DHT22;63954;51.948;5.888;2022-12-16T01:23:12;0.55;71.25
75368;DHT22;63954;51.948;5.888;2022-12-16T01:25:39;0.55;71.18
75368;DHT22;63954;51.948;5.888;2022-12-16T01:28:08;0.57;71.20
75368;DHT22;63954;51.948;5.888;2022-12-16T01:30:35;0.62;71.22
75368;DHT22;63954;51.948;5.888;2022-12-16T01:33:02;0.66;71.08
75368;DHT22;63954;51.948;5.888;2022-12-16T01:35:29;0.69;71.12
75368;DHT22;63954;51.948;5.888;2022-12-16T01:37:57;0.73;71.03
75368;DHT22;63954;51.948;5.888;2022-12-16T01:40:24;0.75;71.02
75368;DHT22;63954;51.948;5.888;2022-12-16T01:42:51;0.76;70.97
75368;DHT22;63954;51.948;5.888;2022-12-16T01:45:29;0.76;70.84
75368;DHT22;63954;51.948;5.888;2022-12-16T01:48:01;0.78;70.84
75368;DHT22;63954;51.948;5.888;2022-12-16T01:50:30;0.76;70.84
75368;DHT22;63954;51.948;5.888;2022-12-16T01:53:00;0.77;70.84
75368;DHT22;63954;51.948;5.888;2022-12-16T01:55:34;0.79;70.81
75368;DHT22;63954;51.948;5.888;2022-12-16T01:58:06;0.82;70.82
75368;DHT22;63954;51.948;5.888;2022-12-16T02:00:36;0.87;70.80
75368;DHT22;63954;51.948;5.888;2022-12-16T02:03:05;0.91;70.71
75368;DHT22;63954;51.948;5.888;2022-12-16T02:05:33;0.95;70.71
75368;DHT22;63954;51.948;5.888;2022-12-16T02:08:09;1.01;70.75
75368;DHT22;63954;51.948;5.888;2022-12-16T02:10:55;1.03;70.66
75368;DHT22;63954;51.948;5.888;2022-12-16T02:13:34;1.02;70.61
75368;DHT22;63954;51.948;5.888;2022-12-16T02:16:12;1.05;70.66
75368;DHT22;63954;51.948;5.888;2022-12-16T02:18:45;1.08;70.67
75368;DHT22;63954;51.948;5.888;2022-12-16T02:21:31;1.11;70.58
75368;DHT22;63954;51.948;5.888;2022-12-16T02:24:29;1.16;70.50
75368;DHT22;63954;51.948;5.888;2022-12-16T02:27:29;1.17;70.50
75368;DHT22;63954;51.948;5.888;2022-12-16T02:32:48;1.21;70.54
75368;DHT22;63954;51.948;5.888;2022-12-16T02:35:24;1.21;70.54
75368;DHT22;63954;51.948;5.888;2022-12-16T02:38:02;1.24;70.55
75368;DHT22;63954;51.948;5.888;2022-12-16T02:40:38;1.27;70.55
75368;DHT22;63954;51.948;5.888;2022-12-16T02:43:11;1.28;70.57
75368;DHT22;63954;51.948;5.888;2022-12-16T02:45:41;1.32;70.55
75368;DHT22;63954;51.948;5.888;2022-12-16T02:48:10;1.32;70.52
75368;DHT22;63954;51.948;5.888;2022-12-16T02:50:39;1.34;70.57
75368;DHT22;63954;51.948;5.888;2022-12-16T02:53:08;1.37;70.64
75368;DHT22;63954;51.948;5.888;2022-12-16T02:55:46;1.40;70.55
75368;DHT22;63954;51.948;5.888;2022-12-16T02:58:18;1.40;70.61
75368;DHT22;63954;51.948;5.888;2022-12-16T03:00:56;1.40;70.61
75368;DHT22;63954;51.948;5.888;2022-12-16T03:03:31;1.41;70.53
75368;DHT22;63954;51.948;5.888;2022-12-16T03:06:03;1.40;70.48
75368;DHT22;63954;51.948;5.888;2022-12-16T03:08:33;1.40;70.60
75368;DHT22;63954;51.948;5.888;2022-12-16T03:11:03;1.41;70.67
75368;DHT22;63954;51.948;5.888;2022-12-16T03:13:35;1.42;70.64
75368;DHT22;63954;51.948;5.888;2022-12-16T03:16:04;1.42;70.55
75368;DHT22;63954;51.948;5.888;2022-12-16T03:18:37;1.41;70.52
75368;DHT22;63954;51.948;5.888;2022-12-16T03:21:07;1.41;70.55
75368;DHT22;63954;51.948;5.888;2022-12-16T03:23:38;1.40;70.53
75368;DHT22;63954;51.948;5.888;2022-12-16T03:26:11;1.41;70.55
75368;DHT22;63954;51.948;5.888;2022-12-16T03:28:46;1.45;70.61
75368;DHT22;63954;51.948;5.888;2022-12-16T03:31:21;1.47;70.70
75368;DHT22;63954;51.948;5.888;2022-12-16T03:33:57;1.48;70.57
75368;DHT22;63954;51.948;5.888;2022-12-16T03:36:26;1.48;70.55
75368;DHT22;63954;51.948;5.888;2022-12-16T03:38:56;1.47;70.52
75368;DHT22;63954;51.948;5.888;2022-12-16T03:41:24;1.46;70.54
75368;DHT22;63954;51.948;5.888;2022-12-16T03:43:51;1.45;70.61
75368;DHT22;63954;51.948;5.888;2022-12-16T03:46:19;1.47;70.61
75368;DHT22;63954;51.948;5.888;2022-12-16T03:48:48;1.48;70.60
75368;DHT22;63954;51.948;5.888;2022-12-16T03:51:18;1.49;70.55
75368;DHT22;63954;51.948;5.888;2022-12-16T03:53:48;1.50;70.39
75368;DHT22;63954;51.948;5.888;2022-12-16T03:56:15;1.45;70.42
75368;DHT22;63954;51.948;5.888;2022-12-16T03:58:48;1.35;70.54
75368;DHT22;63954;51.948;5.888;2022-12-16T04:01:15;1.34;70.70
75368;DHT22;63954;51.948;5.888;2022-12-16T04:03:42;1.36;70.66
75368;DHT22;63954;51.948;5.888;2022-12-16T04:06:11;1.37;70.56
75368;DHT22;63954;51.948;5.888;2022-12-16T04:08:45;1.35;70.61
75368;DHT22;63954;51.948;5.888;2022-12-16T04:11:12;1.34;70.61
75368;DHT22;63954;51.948;5.888;2022-12-16T04:13:57;1.34;70.68
75368;DHT22;63954;51.948;5.888;2022-12-16T04:16:44;1.36;70.65
75368;DHT22;63954;51.948;5.888;2022-12-16T04:19:31;1.39;70.64
75368;DHT22;63954;51.948;5.888;2022-12-16T04:22:19;1.39;70.63
75368;DHT22;63954;51.948;5.888;2022-12-16T04:25:08;1.36;70.76
75368;DHT22;63954;51.948;5.888;2022-12-16T04:27:36;1.35;70.89
75368;DHT22;63954;51.948;5.888;2022-12-16T04:30:04;1.35;70.97
75368;DHT22;63954;51.948;5.888;2022-12-16T04:32:50;1.39;71.04
75368;DHT22;63954;51.948;5.888;2022-12-16T04:35:35;1.45;71.01
75368;DHT22;63954;51.948;5.888;2022-12-16T04:38:20;1.48;70.97
75368;DHT22;63954;51.948;5.888;2022-12-16T04:41:15;1.48;71.01
75368;DHT22;63954;51.948;5.888;2022-12-16T04:44:02;1.48;71.09
75368;DHT22;63954;51.948;5.888;2022-12-16T04:46:47;1.49;71.16
75368;DHT22;63954;51.948;5.888;2022-12-16T04:49:32;1.49;71.23
75368;DHT22;63954;51.948;5.888;2022-12-16T04:52:17;1.45;71.36
75368;DHT22;63954;51.948;5.888;2022-12-16T04:55:02;1.43;71.58
75368;DHT22;63954;51.948;5.888;2022-12-16T04:57:50;1.42;71.67
75368;DHT22;63954;51.948;5.888;2022-12-16T05:00:35;1.41;71.86
75368;DHT22;63954;51.948;5.888;2022-12-16T05:03:20;1.37;72.04
75368;DHT22;63954;51.948;5.888;2022-12-16T05:06:05;1.38;72.17
75368;DHT22;63954;51.948;5.888;2022-12-16T05:08:49;1.38;72.25
75368;DHT22;63954;51.948;5.888;2022-12-16T05:11:34;1.39;72.36
75368;DHT22;63954;51.948;5.888;2022-12-16T05:14:20;1.36;72.47
75368;DHT22;63954;51.948;5.888;2022-12-16T05:17:05;1.36;72.67
75368;DHT22;63954;51.948;5.888;2022-12-16T05:19:50;1.38;72.78
75368;DHT22;63954;51.948;5.888;2022-12-16T05:22:35;1.39;72.87
75368;DHT22;63954;51.948;5.888;2022-12-16T05:25:19;1.38;72.91
75368;DHT22;63954;51.948;5.888;2022-12-16T05:28:04;1.38;72.99
75368;DHT22;63954;51.948;5.888;2022-12-16T05:30:51;1.39;73.11
75368;DHT22;63954;51.948;5.888;2022-12-16T05:33:36;1.41;73.17
75368;DHT22;63954;51.948;5.888;2022-12-16T05:36:21;1.43;73.21
75368;DHT22;63954;51.948;5.888;2022-12-16T05:39:14;1.46;73.26
75368;DHT22;63954;51.948;5.888;2022-12-16T05:41:59;1.45;73.31
75368;DHT22;63954;51.948;5.888;2022-12-16T05:44:44;1.45;73.36
75368;DHT22;63954;51.948;5.888;2022-12-16T05:47:30;1.46;73.43
75368;DHT22;63954;51.948;5.888;2022-12-16T05:50:15;1.48;73.55
75368;DHT22;63954;51.948;5.888;2022-12-16T05:53:08;1.49;73.58
75368;DHT22;63954;51.948;5.888;2022-12-16T05:55:52;1.49;73.58
75368;DHT22;63954;51.948;5.888;2022-12-16T05:58:37;1.47;73.63
75368;DHT22;63954;51.948;5.888;2022-12-16T06:01:22;1.46;73.77
75368;DHT22;63954;51.948;5.888;2022-12-16T06:04:08;1.45;73.81
75368;DHT22;63954;51.948;5.888;2022-12-16T06:06:53;1.45;73.86
75368;DHT22;63954;51.948;5.888;2022-12-16T06:09:38;1.43;73.95
75368;DHT22;63954;51.948;5.888;2022-12-16T06:12:23;1.40;73.99
75368;DHT22;63954;51.948;5.888;2022-12-16T06:15:10;1.38;74.07
75368;DHT22;63954;51.948;5.888;2022-12-16T06:17:55;1.36;74.22
75368;DHT22;63954;51.948;5.888;2022-12-16T06:20:42;1.37;74.25
75368;DHT22;63954;51.948;5.888;2022-12-16T06:23:27;1.34;74.22
75368;DHT22;63954;51.948;5.888;2022-12-16T06:26:12;1.31;74.29
75368;DHT22;63954;51.948;5.888;2022-12-16T06:28:57;1.26;74.36
75368;DHT22;63954;51.948;5.888;2022-12-16T06:31:41;1.22;74.39
75368;DHT22;63954;51.948;5.888;2022-12-16T06:34:26;1.16;74.44
75368;DHT22;63954;51.948;5.888;2022-12-16T06:37:12;1.10;74.55
75368;DHT22;63954;51.948;5.888;2022-12-16T06:39:57;1.04;74.57
75368;DHT22;63954;51.948;5.888;2022-12-16T06:42:41;0.94;74.67
75368;DHT22;63954;51.948;5.888;2022-12-16T06:45:26;0.88;74.70
75368;DHT22;63954;51.948;5.888;2022-12-16T06:48:11;0.79;74.79
75368;DHT22;63954;51.948;5.888;2022-12-16T06:50:56;0.71;74.87
75368;DHT22;63954;51.948;5.888;2022-12-16T06:53:41;0.66;74.99
75368;DHT22;63954;51.948;5.888;2022-12-16T06:56:26;0.60;75.05
75368;DHT22;63954;51.948;5.888;2022-12-16T06:59:11;0.54;75.07
75368;DHT22;63954;51.948;5.888;2022-12-16T07:01:56;0.49;75.07
75368;DHT22;63954;51.948;5.888;2022-12-16T07:04:41;0.44;75.17
75368;DHT22;63954;51.948;5.888;2022-12-16T07:07:26;0.39;75.27
75368;DHT22;63954;51.948;5.888;2022-12-16T07:10:12;0.35;75.27
75368;DHT22;63954;51.948;5.888;2022-12-16T07:12:59;0.31;75.38
75368;DHT22;63954;51.948;5.888;2022-12-16T07:15:46;0.28;75.21
75368;DHT22;63954;51.948;5.888;2022-12-16T07:18:31;0.23;75.27
75368;DHT22;63954;51.948;5.888;2022-12-16T07:21:15;0.21;75.34
75368;DHT22;63954;51.948;5.888;2022-12-16T07:24:01;0.17;75.33
75368;DHT22;63954;51.948;5.888;2022-12-16T07:26:47;0.14;75.39
75368;DHT22;63954;51.948;5.888;2022-12-16T07:29:31;0.08;75.44
75368;DHT22;63954;51.948;5.888;2022-12-16T07:32:16;0.03;75.58
75368;DHT22;63954;51.948;5.888;2022-12-16T07:35:01;-0.03;75.79
75368;DHT22;63954;51.948;5.888;2022-12-16T07:37:46;-0.08;75.86
75368;DHT22;63954;51.948;5.888;2022-12-16T07:40:31;-0.10;75.94
75368;DHT22;63954;51.948;5.888;2022-12-16T07:43:17;-0.10;75.95
75368;DHT22;63954;51.948;5.888;2022-12-16T07:45:58;-0.10;75.99
75368;DHT22;63954;51.948;5.888;2022-12-16T07:48:46;-0.11;75.85
75368;DHT22;63954;51.948;5.888;2022-12-16T07:51:30;-0.12;75.86
75368;DHT22;63954;51.948;5.888;2022-12-16T07:54:18;-0.15;75.76
75368;DHT22;63954;51.948;5.888;2022-12-16T07:57:04;-0.19;75.69
75368;DHT22;63954;51.948;5.888;2022-12-16T07:59:50;-0.22;75.70
75368;DHT22;63954;51.948;5.888;2022-12-16T08:02:38;-0.25;75.67
75368;DHT22;63954;51.948;5.888;2022-12-16T08:05:23;-0.27;75.65
75368;DHT22;63954;51.948;5.888;2022-12-16T08:08:07;-0.27;75.60
75368;DHT22;63954;51.948;5.888;2022-12-16T08:10:52;-0.28;75.60
75368;DHT22;63954;51.948;5.888;2022-12-16T08:13:45;-0.28;75.49
75368;DHT22;63954;51.948;5.888;2022-12-16T08:16:31;-0.26;75.40
75368;DHT22;63954;51.948;5.888;2022-12-16T08:19:16;-0.29;75.31
75368;DHT22;63954;51.948;5.888;2022-12-16T08:22:01;-0.29;75.37
75368;DHT22;63954;51.948;5.888;2022-12-16T08:24:45;-0.30;75.34
75368;DHT22;63954;51.948;5.888;2022-12-16T08:27:30;-0.29;75.39
75368;DHT22;63954;51.948;5.888;2022-12-16T08:30:26;-0.29;75.31
75368;DHT22;63954;51.948;5.888;2022-12-16T08:33:12;-0.26;75.31
75368;DHT22;63954;51.948;5.888;2022-12-16T08:35:57;-0.21;75.25
75368;DHT22;63954;51.948;5.888;2022-12-16T08:38:42;-0.14;75.16
75368;DHT22;63954;51.948;5.888;2022-12-16T08:41:26;-0.07;75.07
75368;DHT22;63954;51.948;5.888;2022-12-16T08:44:11;-0.03;75.05
75368;DHT22;63954;51.948;5.888;2022-12-16T08:46:56;0.02;75.01
75368;DHT22;63954;51.948;5.888;2022-12-16T08:49:42;0.07;75.06
75368;DHT22;63954;51.948;5.888;2022-12-16T08:52:27;0.17;75.08
75368;DHT22;63954;51.948;5.888;2022-12-16T08:55:12;0.28;75.09
75368;DHT22;63954;51.948;5.888;2022-12-16T08:57:57;0.36;74.96
75368;DHT22;63954;51.948;5.888;2022-12-16T09:00:42;0.43;74.90
75368;DHT22;63954;51.948;5.888;2022-12-16T09:03:26;0.47;74.89
75368;DHT22;63954;51.948;5.888;2022-12-16T09:06:12;0.50;74.94
75368;DHT22;63954;51.948;5.888;2022-12-16T09:08:56;0.53;74.99
75368;DHT22;63954;51.948;5.888;2022-12-16T09:11:40;0.58;75.05
75368;DHT22;63954;51.948;5.888;2022-12-16T09:14:25;0.62;75.02
75368;DHT22;63954;51.948;5.888;2022-12-16T09:17:10;0.66;75.01
75368;DHT22;63954;51.948;5.888;2022-12-16T09:19:54;0.68;75.07
75368;DHT22;63954;51.948;5.888;2022-12-16T09:22:40;0.75;75.08
75368;DHT22;63954;51.948;5.888;2022-12-16T09:25:25;0.82;75.09
75368;DHT22;63954;51.948;5.888;2022-12-16T09:28:10;0.91;75.05
75368;DHT22;63954;51.948;5.888;2022-12-16T09:30:55;0.97;75.11
75368;DHT22;63954;51.948;5.888;2022-12-16T09:33:40;1.05;75.12
75368;DHT22;63954;51.948;5.888;2022-12-16T09:36:25;1.16;75.03
75368;DHT22;63954;51.948;5.888;2022-12-16T09:39:11;1.26;74.88
75368;DHT22;63954;51.948;5.888;2022-12-16T09:42:02;1.33;74.81
75368;DHT22;63954;51.948;5.888;2022-12-16T09:44:55;1.37;74.78
75368;DHT22;63954;51.948;5.888;2022-12-16T09:47:47;1.40;74.73
75368;DHT22;63954;51.948;5.888;2022-12-16T09:50:37;1.42;74.73
75368;DHT22;63954;51.948;5.888;2022-12-16T09:53:23;1.47;74.73
75368;DHT22;63954;51.948;5.888;2022-12-16T09:56:15;1.53;74.64
75368;DHT22;63954;51.948;5.888;2022-12-16T09:59:12;1.55;74.60
75368;DHT22;63954;51.948;5.888;2022-12-16T10:01:58;1.54;74.58
75368;DHT22;63954;51.948;5.888;2022-12-16T10:04:54;1.53;74.68
75368;DHT22;63954;51.948;5.888;2022-12-16T10:07:48;1.51;74.73
75368;DHT22;63954;51.948;5.888;2022-12-16T10:10:42;1.52;74.77
75368;DHT22;63954;51.948;5.888;2022-12-16T10:13:39;1.60;74.71
75368;DHT22;63954;51.948;5.888;2022-12-16T10:16:31;1.68;74.57
75368;DHT22;63954;51.948;5.888;2022-12-16T10:19:29;1.73;74.45
75368;DHT22;63954;51.948;5.888;2022-12-16T10:22:21;1.77;74.42
75368;DHT22;63954;51.948;5.888;2022-12-16T10:25:14;1.82;74.37
75368;DHT22;63954;51.948;5.888;2022-12-16T10:28:10;1.90;74.31
75368;DHT22;63954;51.948;5.888;2022-12-16T10:30:58;2.01;74.22
75368;DHT22;63954;51.948;5.888;2022-12-16T10:33:46;2.11;74.00
75368;DHT22;63954;51.948;5.888;2022-12-16T10:36:48;2.23;73.89
75368;DHT22;63954;51.948;5.888;2022-12-16T10:39:54;2.38;73.77
75368;DHT22;63954;51.948;5.888;2022-12-16T10:42:43;2.50;73.61
75368;DHT22;63954;51.948;5.888;2022-12-16T10:45:34;2.60;73.43
75368;DHT22;63954;51.948;5.888;2022-12-16T10:48:22;2.70;73.32
75368;DHT22;63954;51.948;5.888;2022-12-16T10:51:11;2.81;73.01
75368;DHT22;63954;51.948;5.888;2022-12-16T10:54:04;2.88;72.86
75368;DHT22;63954;51.948;5.888;2022-12-16T10:56:58;2.96;72.66
75368;DHT22;63954;51.948;5.888;2022-12-16T10:59:44;2.99;72.64
75368;DHT22;63954;51.948;5.888;2022-12-16T11:02:28;3.03;72.66
75368;DHT22;63954;51.948;5.888;2022-12-16T11:05:30;3.06;72.54
75368;DHT22;63954;51.948;5.888;2022-12-16T11:08:27;3.11;72.39
75368;DHT22;63954;51.948;5.888;2022-12-16T11:11:17;3.13;72.45
75368;DHT22;63954;51.948;5.888;2022-12-16T11:14:14;3.13;72.37
75368;DHT22;63954;51.948;5.888;2022-12-16T11:17:13;3.17;72.51
75368;DHT22;63954;51.948;5.888;2022-12-16T11:20:16;3.29;72.32
75368;DHT22;63954;51.948;5.888;2022-12-16T11:23:17;3.36;72.16
75368;DHT22;63954;51.948;5.888;2022-12-16T11:26:04;3.42;72.21
75368;DHT22;63954;51.948;5.888;2022-12-16T11:29:09;3.46;72.10
75368;DHT22;63954;51.948;5.888;2022-12-16T11:32:00;3.46;72.15
75368;DHT22;63954;51.948;5.888;2022-12-16T11:34:51;3.49;72.14
75368;DHT22;63954;51.948;5.888;2022-12-16T11:37:37;3.55;72.13
75368;DHT22;63954;51.948;5.888;2022-12-16T11:40:35;3.59;72.09
75368;DHT22;63954;51.948;5.888;2022-12-16T11:43:23;3.67;71.97
75368;DHT22;63954;51.948;5.888;2022-12-16T11:46:11;3.75;71.87
75368;DHT22;63954;51.948;5.888;2022-12-16T11:48:58;3.80;71.66
75368;DHT22;63954;51.948;5.888;2022-12-16T11:51:51;3.87;71.58
75368;DHT22;63954;51.948;5.888;2022-12-16T11:54:43;3.93;71.50
75368;DHT22;63954;51.948;5.888;2022-12-16T11:57:42;3.99;71.28
75368;DHT22;63954;51.948;5.888;2022-12-16T12:00:28;3.97;71.38
75368;DHT22;63954;51.948;5.888;2022-12-16T12:03:16;4.02;71.31
75368;DHT22;63954;51.948;5.888;2022-12-16T12:06:10;4.03;71.22
75368;DHT22;63954;51.948;5.888;2022-12-16T12:09:05;4.06;71.24
75368;DHT22;63954;51.948;5.888;2022-12-16T12:11:57;4.09;71.22
75368;DHT22;63954;51.948;5.888;2022-12-16T12:14:53;4.13;71.14
75368;DHT22;63954;51.948;5.888;2022-12-16T12:17:59;4.12;71.23
75368;DHT22;63954;51.948;5.888;2022-12-16T12:20:52;4.14;71.16
75368;DHT22;63954;51.948;5.888;2022-12-16T12:23:47;4.09;71.28
75368;DHT22;63954;51.948;5.888;2022-12-16T12:26:36;4.10;71.35
75368;DHT22;63954;51.948;5.888;2022-12-16T12:29:30;4.09;71.27
75368;DHT22;63954;51.948;5.888;2022-12-16T12:32:25;4.10;71.34
75368;DHT22;63954;51.948;5.888;2022-12-16T12:35:17;4.10;71.39
75368;DHT22;63954;51.948;5.888;2022-12-16T12:38:09;4.13;71.32
75368;DHT22;63954;51.948;5.888;2022-12-16T12:41:01;4.13;71.22
75368;DHT22;63954;51.948;5.888;2022-12-16T12:43:58;4.13;71.30
75368;DHT22;63954;51.948;5.888;2022-12-16T12:46:51;4.14;71.35
75368;DHT22;63954;51.948;5.888;2022-12-16T12:49:43;4.15;71.30
75368;DHT22;63954;51.948;5.888;2022-12-16T12:53:09;4.09;71.37
75368;DHT22;63954;51.948;5.888;2022-12-16T12:56:04;4.03;71.44
75368;DHT22;63954;51.948;5.888;2022-12-16T12:58:55;4.01;71.48
75368;DHT22;63954;51.948;5.888;2022-12-16T13:01:44;3.99;71.51
75368;DHT22;63954;51.948;5.888;2022-12-16T13:04:29;3.94;71.63
75368;DHT22;63954;51.948;5.888;2022-12-16T13:07:15;3.91;71.74
75368;DHT22;63954;51.948;5.888;2022-12-16T13:10:12;3.83;71.93
75368;DHT22;63954;51.948;5.888;2022-12-16T13:13:20;3.78;72.16
75368;DHT22;63954;51.948;5.888;2022-12-16T13:16:10;3.83;72.06
75368;DHT22;63954;51.948;5.888;2022-12-16T13:19:39;3.86;72.00
75368;DHT22;63954;51.948;5.888;2022-12-16T13:22:30;3.87;71.96
75368;DHT22;63954;51.948;5.888;2022-12-16T13:25:41;3.89;71.91
75368;DHT22;63954;51.948;5.888;2022-12-16T13:28:31;3.85;72.06
75368;DHT22;63954;51.948;5.888;2022-12-16T13:31:17;3.82;72.19
75368;DHT22;63954;51.948;5.888;2022-12-16T13:34:05;3.79;72.31
75368;DHT22;63954;51.948;5.888;2022-12-16T13:36:55;3.76;72.43
75368;DHT22;63954;51.948;5.888;2022-12-16T13:39:43;3.73;72.61
75368;DHT22;63954;51.948;5.888;2022-12-16T13:42:53;3.68;72.99
75368;DHT22;63954;51.948;5.888;2022-12-16T13:45:40;3.62;73.03
75368;DHT22;63954;51.948;5.888;2022-12-16T13:48:34;3.57;73.19
75368;DHT22;63954;51.948;5.888;2022-12-16T13:51:57;3.55;73.31
75368;DHT22;63954;51.948;5.888;2022-12-16T13:54:51;3.56;73.34
75368;DHT22;63954;51.948;5.888;2022-12-16T13:57:41;3.54;73.43
75368;DHT22;63954;51.948;5.888;2022-12-16T14:00:35;3.49;73.59
75368;DHT22;63954;51.948;5.888;2022-12-16T14:03:32;3.47;73.67
75368;DHT22;63954;51.948;5.888;2022-12-16T14:06:25;3.46;73.79
75368;DHT22;63954;51.948;5.888;2022-12-16T14:09:25;3.46;73.85
75368;DHT22;63954;51.948;5.888;2022-12-16T14:12:22;3.45;73.94
75368;DHT22;63954;51.948;5.888;2022-12-16T14:15:15;3.46;73.87
75368;DHT22;63954;51.948;5.888;2022-12-16T14:18:11;3.46;73.90
75368;DHT22;63954;51.948;5.888;2022-12-16T14:21:01;3.49;73.90
75368;DHT22;63954;51.948;5.888;2022-12-16T14:23:48;3.49;73.88
75368;DHT22;63954;51.948;5.888;2022-12-16T14:26:45;3.47;73.93
75368;DHT22;63954;51.948;5.888;2022-12-16T14:29:32;3.47;74.00
75368;DHT22;63954;51.948;5.888;2022-12-16T14:32:26;3.46;74.08
75368;DHT22;63954;51.948;5.888;2022-12-16T14:35:14;3.45;74.16
75368;DHT22;63954;51.948;5.888;2022-12-16T14:38:13;3.44;74.24
75368;DHT22;63954;51.948;5.888;2022-12-16T14:41:04;3.43;74.25
75368;DHT22;63954;51.948;5.888;2022-12-16T14:43:48;3.44;74.25
75368;DHT22;63954;51.948;5.888;2022-12-16T14:46:35;3.45;74.21
75368;DHT22;63954;51.948;5.888;2022-12-16T14:49:22;3.44;74.33
75368;DHT22;63954;51.948;5.888;2022-12-16T14:52:18;3.42;74.51
75368;DHT22;63954;51.948;5.888;2022-12-16T14:55:31;3.40;74.54
75368;DHT22;63954;51.948;5.888;2022-12-16T14:58:17;3.39;74.56
75368;DHT22;63954;51.948;5.888;2022-12-16T15:01:09;3.40;74.53
75368;DHT22;63954;51.948;5.888;2022-12-16T15:03:57;3.42;74.49
75368;DHT22;63954;51.948;5.888;2022-12-16T15:06:44;3.44;74.44
75368;DHT22;63954;51.948;5.888;2022-12-16T15:09:31;3.43;74.53
75368;DHT22;63954;51.948;5.888;2022-12-16T15:12:20;3.42;74.60
75368;DHT22;63954;51.948;5.888;2022-12-16T15:15:12;3.40;74.70
75368;DHT22;63954;51.948;5.888;2022-12-16T15:18:16;3.39;74.70
75368;DHT22;63954;51.948;5.888;2022-12-16T15:21:05;3.38;74.76
75368;DHT22;63954;51.948;5.888;2022-12-16T15:24:19;3.38;74.79
75368;DHT22;63954;51.948;5.888;2022-12-16T15:27:22;3.36;74.89
75368;DHT22;63954;51.948;5.888;2022-12-16T15:30:31;3.35;74.99
75368;DHT22;63954;51.948;5.888;2022-12-16T15:33:18;3.35;74.88
75368;DHT22;63954;51.948;5.888;2022-12-16T15:36:33;3.38;75.12
75368;DHT22;63954;51.948;5.888;2022-12-16T15:39:21;3.34;75.14
75368;DHT22;63954;51.948;5.888;2022-12-16T15:42:19;3.27;75.44
75368;DHT22;63954;51.948;5.888;2022-12-16T15:45:15;3.23;75.72
75368;DHT22;63954;51.948;5.888;2022-12-16T15:48:11;3.19;75.66
75368;DHT22;63954;51.948;5.888;2022-12-16T15:50:57;3.16;75.77
75368;DHT22;63954;51.948;5.888;2022-12-16T15:53:45;3.15;75.83
75368;DHT22;63954;51.948;5.888;2022-12-16T15:56:40;3.16;75.90
75368;DHT22;63954;51.948;5.888;2022-12-16T15:59:58;3.14;75.97
75368;DHT22;63954;51.948;5.888;2022-12-16T16:02:48;3.16;75.96
75368;DHT22;63954;51.948;5.888;2022-12-16T16:05:39;3.18;75.94
75368;DHT22;63954;51.948;5.888;2022-12-16T16:08:30;3.18;76.01
75368;DHT22;63954;51.948;5.888;2022-12-16T16:11:16;3.15;76.16
75368;DHT22;63954;51.948;5.888;2022-12-16T16:14:06;3.12;76.29
75368;DHT22;63954;51.948;5.888;2022-12-16T16:16:57;3.13;76.27
75368;DHT22;63954;51.948;5.888;2022-12-16T16:19:43;3.13;76.30
75368;DHT22;63954;51.948;5.888;2022-12-16T16:22:28;3.13;76.37
75368;DHT22;63954;51.948;5.888;2022-12-16T16:25:13;3.14;76.33
75368;DHT22;63954;51.948;5.888;2022-12-16T16:27:59;3.15;76.39
75368;DHT22;63954;51.948;5.888;2022-12-16T16:30:44;3.15;76.42
75368;DHT22;63954;51.948;5.888;2022-12-16T16:33:29;3.15;76.54
75368;DHT22;63954;51.948;5.888;2022-12-16T16:36:17;3.15;76.57
75368;DHT22;63954;51.948;5.888;2022-12-16T16:39:01;3.16;76.57
75368;DHT22;63954;51.948;5.888;2022-12-16T16:41:46;3.18;76.55
75368;DHT22;63954;51.948;5.888;2022-12-16T16:44:31;3.17;76.59
75368;DHT22;63954;51.948;5.888;2022-12-16T16:47:20;3.19;76.60
75368;DHT22;63954;51.948;5.888;2022-12-16T16:50:11;3.21;76.53
75368;DHT22;63954;51.948;5.888;2022-12-16T16:52:57;3.20;76.62
75368;DHT22;63954;51.948;5.888;2022-12-16T16:55:42;3.21;76.59
75368;DHT22;63954;51.948;5.888;2022-12-16T16:58:29;3.25;76.52
75368;DHT22;63954;51.948;5.888;2022-12-16T17:01:17;3.27;76.44
75368;DHT22;63954;51.948;5.888;2022-12-16T17:04:02;3.30;76.39
75368;DHT22;63954;51.948;5.888;2022-12-16T17:06:49;3.30;76.41
75368;DHT22;63954;51.948;5.888;2022-12-16T17:09:34;3.29;76.49
75368;DHT22;63954;51.948;5.888;2022-12-16T17:12:20;3.31;76.48
75368;DHT22;63954;51.948;5.888;2022-12-16T17:15:14;3.33;76.42
75368;DHT22;63954;51.948;5.888;2022-12-16T17:18:00;3.33;76.45
75368;DHT22;63954;51.948;5.888;2022-12-16T17:21:00;3.34;76.42
75368;DHT22;63954;51.948;5.888;2022-12-16T17:23:46;3.34;76.47
75368;DHT22;63954;51.948;5.888;2022-12-16T17:26:33;3.39;76.37
75368;DHT22;63954;51.948;5.888;2022-12-16T17:29:20;3.41;76.29
75368;DHT22;63954;51.948;5.888;2022-12-16T17:32:08;3.42;76.27
75368;DHT22;63954;51.948;5.888;2022-12-16T17:34:56;3.43;76.28
75368;DHT22;63954;51.948;5.888;2022-12-16T17:37:41;3.45;76.28
75368;DHT22;63954;51.948;5.888;2022-12-16T17:40:26;3.47;76.21